sensor_id;sensor_type;location;lat;lon;timestamp;P1;durP1;ratioP1;P2;durP2;ratioP2
37823;SDS011;23667;43.246;26.576;2022-09-30T00:02:08;2.72;;;1.60;;
37823;SDS011;23667;43.246;26.576;2022-09-30T00:04:36;2.78;;;0.90;;
37823;SDS011;23667;43.246;26.576;2022-09-30T00:07:01;4.25;;;1.55;;
37823;SDS011;23667;43.246;26.576;2022-09-30T00:09:27;2.05;;;0.88;;
37823;SDS011;23667;43.246;26.576;2022-09-30T00:11:53;3.13;;;1.48;;
37823;SDS011;23667;43.246;26.576;2022-09-30T00:14:20;2.80;;;1.10;;
37823;SDS011;23667;43.246;26.576;2022-09-30T00:16:47;2.60;;;0.88;;
37823;SDS011;23667;43.246;26.576;2022-09-30T00:19:13;2.35;;;1.02;;
37823;SDS011;23667;43.246;26.576;2022-09-30T00:21:39;2.65;;;0.70;;
37823;SDS011;23667;43.246;26.576;2022-09-30T00:24:05;3.08;;;1.17;;
37823;SDS011;23667;43.246;26.576;2022-09-30T00:26:31;2.50;;;0.90;;
37823;SDS011;23667;43.246;26.576;2022-09-30T00:28:58;1.73;;;0.82;;
37823;SDS011;23667;43.246;26.576;2022-09-30T00:31:26;9.07;;;1.10;;
37823;SDS011;23667;43.246;26.576;2022-09-30T00:33:54;2.58;;;1.05;;
37823;SDS011;23667;43.246;26.576;2022-09-30T00:39:08;4.57;;;1.05;;
37823;SDS011;23667;43.246;26.576;2022-09-30T00:41:36;1.83;;;1.08;;
37823;SDS011;23667;43.246;26.576;2022-09-30T00:44:37;2.50;;;0.90;;
37823;SDS011;23667;43.246;26.576;2022-09-30T00:52:49;4.07;;;1.10;;
37823;SDS011;23667;43.246;26.576;2022-09-30T00:55:23;1.65;;;0.77;;
37823;SDS011;23667;43.246;26.576;2022-09-30T00:57:55;3.78;;;1.25;;
37823;SDS011;23667;43.246;26.576;2022-09-30T01:00:21;3.63;;;1.27;;
37823;SDS011;23667;43.246;26.576;2022-09-30T01:02:47;4.45;;;0.90;;
37823;SDS011;23667;43.246;26.576;2022-09-30T01:05:13;2.97;;;0.90;;
37823;SDS011;23667;43.246;26.576;2022-09-30T01:07:39;3.67;;;1.30;;
37823;SDS011;23667;43.246;26.576;2022-09-30T01:10:04;3.63;;;0.90;;
37823;SDS011;23667;43.246;26.576;2022-09-30T01:12:30;2.53;;;1.00;;
37823;SDS011;23667;43.246;26.576;2022-09-30T01:14:56;1.58;;;0.70;;
37823;SDS011;23667;43.246;26.576;2022-09-30T01:23:18;2.75;;;1.20;;
37823;SDS011;23667;43.246;26.576;2022-09-30T01:29:16;2.30;;;0.75;;
37823;SDS011;23667;43.246;26.576;2022-09-30T01:35:02;6.18;;;0.80;;
37823;SDS011;23667;43.246;26.576;2022-09-30T01:40:32;2.13;;;1.08;;
37823;SDS011;23667;43.246;26.576;2022-09-30T01:43:13;2.70;;;0.98;;
37823;SDS011;23667;43.246;26.576;2022-09-30T01:51:06;3.70;;;0.80;;
37823;SDS011;23667;43.246;26.576;2022-09-30T01:53:42;2.45;;;1.05;;
37823;SDS011;23667;43.246;26.576;2022-09-30T01:56:24;3.60;;;1.38;;
37823;SDS011;23667;43.246;26.576;2022-09-30T01:59:00;3.30;;;0.70;;
37823;SDS011;23667;43.246;26.576;2022-09-30T02:01:37;2.90;;;0.70;;
37823;SDS011;23667;43.246;26.576;2022-09-30T02:04:19;2.22;;;0.70;;
37823;SDS011;23667;43.246;26.576;2022-09-30T02:06:50;2.25;;;0.80;;
37823;SDS011;23667;43.246;26.576;2022-09-30T02:09:21;1.77;;;0.80;;
37823;SDS011;23667;43.246;26.576;2022-09-30T02:11:52;4.05;;;0.70;;
37823;SDS011;23667;43.246;26.576;2022-09-30T02:14:25;1.70;;;0.70;;
37823;SDS011;23667;43.246;26.576;2022-09-30T02:17:08;3.15;;;1.00;;
37823;SDS011;23667;43.246;26.576;2022-09-30T02:19:41;5.13;;;0.80;;
37823;SDS011;23667;43.246;26.576;2022-09-30T02:22:39;7.07;;;1.50;;
37823;SDS011;23667;43.246;26.576;2022-09-30T02:25:22;3.30;;;0.80;;
37823;SDS011;23667;43.246;26.576;2022-09-30T02:27:53;1.40;;;0.50;;
37823;SDS011;23667;43.246;26.576;2022-09-30T02:30:35;2.38;;;1.02;;
37823;SDS011;23667;43.246;26.576;2022-09-30T02:33:24;4.38;;;1.05;;
37823;SDS011;23667;43.246;26.576;2022-09-30T02:36:00;2.70;;;1.70;;
37823;SDS011;23667;43.246;26.576;2022-09-30T02:38:33;2.83;;;1.05;;
37823;SDS011;23667;43.246;26.576;2022-09-30T02:41:09;2.40;;;0.60;;
37823;SDS011;23667;43.246;26.576;2022-09-30T02:46:25;2.78;;;1.05;;
37823;SDS011;23667;43.246;26.576;2022-09-30T02:49:19;2.28;;;1.02;;
37823;SDS011;23667;43.246;26.576;2022-09-30T02:54:39;7.15;;;1.05;;
37823;SDS011;23667;43.246;26.576;2022-09-30T02:59:50;4.32;;;1.08;;
37823;SDS011;23667;43.246;26.576;2022-09-30T03:02:17;4.68;;;1.20;;
37823;SDS011;23667;43.246;26.576;2022-09-30T03:04:44;3.20;;;1.23;;
37823;SDS011;23667;43.246;26.576;2022-09-30T03:07:12;3.17;;;1.05;;
37823;SDS011;23667;43.246;26.576;2022-09-30T03:09:38;5.28;;;1.17;;
37823;SDS011;23667;43.246;26.576;2022-09-30T03:12:18;3.33;;;1.33;;
37823;SDS011;23667;43.246;26.576;2022-09-30T03:17:57;2.22;;;1.00;;
37823;SDS011;23667;43.246;26.576;2022-09-30T03:26:17;4.63;;;1.10;;
37823;SDS011;23667;43.246;26.576;2022-09-30T03:34:28;3.08;;;1.25;;
37823;SDS011;23667;43.246;26.576;2022-09-30T03:37:14;5.65;;;1.38;;
37823;SDS011;23667;43.246;26.576;2022-09-30T03:42:21;3.38;;;1.50;;
37823;SDS011;23667;43.246;26.576;2022-09-30T03:47:56;2.22;;;1.10;;
37823;SDS011;23667;43.246;26.576;2022-09-30T03:50:25;2.75;;;0.90;;
37823;SDS011;23667;43.246;26.576;2022-09-30T03:52:52;2.72;;;1.15;;
37823;SDS011;23667;43.246;26.576;2022-09-30T03:55:18;3.25;;;1.35;;
37823;SDS011;23667;43.246;26.576;2022-09-30T03:57:46;4.22;;;1.02;;
37823;SDS011;23667;43.246;26.576;2022-09-30T04:00:13;6.05;;;1.65;;
37823;SDS011;23667;43.246;26.576;2022-09-30T04:02:39;3.25;;;1.23;;
37823;SDS011;23667;43.246;26.576;2022-09-30T04:05:05;3.03;;;1.33;;
37823;SDS011;23667;43.246;26.576;2022-09-30T04:07:32;1.98;;;1.02;;
37823;SDS011;23667;43.246;26.576;2022-09-30T04:09:58;4.57;;;1.30;;
37823;SDS011;23667;43.246;26.576;2022-09-30T04:12:24;3.22;;;1.52;;
37823;SDS011;23667;43.246;26.576;2022-09-30T04:14:50;4.80;;;1.60;;
37823;SDS011;23667;43.246;26.576;2022-09-30T04:17:16;4.20;;;1.30;;
37823;SDS011;23667;43.246;26.576;2022-09-30T04:19:41;3.65;;;1.63;;
37823;SDS011;23667;43.246;26.576;2022-09-30T04:22:07;7.80;;;2.20;;
37823;SDS011;23667;43.246;26.576;2022-09-30T04:24:33;8.23;;;1.70;;
37823;SDS011;23667;43.246;26.576;2022-09-30T04:26:59;8.20;;;2.10;;
37823;SDS011;23667;43.246;26.576;2022-09-30T04:29:24;5.65;;;2.33;;
37823;SDS011;23667;43.246;26.576;2022-09-30T04:31:51;7.13;;;1.98;;
37823;SDS011;23667;43.246;26.576;2022-09-30T04:34:16;5.88;;;2.05;;
37823;SDS011;23667;43.246;26.576;2022-09-30T04:36:42;5.45;;;1.90;;
37823;SDS011;23667;43.246;26.576;2022-09-30T04:39:07;4.53;;;1.80;;
37823;SDS011;23667;43.246;26.576;2022-09-30T04:41:33;5.28;;;2.03;;
37823;SDS011;23667;43.246;26.576;2022-09-30T04:43:58;12.23;;;2.65;;
37823;SDS011;23667;43.246;26.576;2022-09-30T04:46:29;16.48;;;3.72;;
37823;SDS011;23667;43.246;26.576;2022-09-30T04:48:55;4.68;;;2.35;;
37823;SDS011;23667;43.246;26.576;2022-09-30T04:51:21;13.63;;;2.97;;
37823;SDS011;23667;43.246;26.576;2022-09-30T04:53:47;6.53;;;2.80;;
37823;SDS011;23667;43.246;26.576;2022-09-30T04:56:12;17.15;;;3.60;;
37823;SDS011;23667;43.246;26.576;2022-09-30T04:58:40;9.95;;;3.55;;
37823;SDS011;23667;43.246;26.576;2022-09-30T05:01:07;5.03;;;2.35;;
37823;SDS011;23667;43.246;26.576;2022-09-30T05:03:34;9.35;;;2.70;;
37823;SDS011;23667;43.246;26.576;2022-09-30T05:06:01;6.53;;;2.30;;
37823;SDS011;23667;43.246;26.576;2022-09-30T05:08:27;5.28;;;1.85;;
37823;SDS011;23667;43.246;26.576;2022-09-30T05:10:54;5.20;;;2.65;;
37823;SDS011;23667;43.246;26.576;2022-09-30T05:13:21;5.45;;;2.45;;
37823;SDS011;23667;43.246;26.576;2022-09-30T05:15:53;4.75;;;2.28;;
37823;SDS011;23667;43.246;26.576;2022-09-30T05:18:19;10.45;;;2.17;;
37823;SDS011;23667;43.246;26.576;2022-09-30T05:20:48;4.30;;;1.40;;
37823;SDS011;23667;43.246;26.576;2022-09-30T05:23:14;4.13;;;2.03;;
37823;SDS011;23667;43.246;26.576;2022-09-30T05:25:40;6.28;;;2.10;;
37823;SDS011;23667;43.246;26.576;2022-09-30T05:28:06;5.15;;;2.08;;
37823;SDS011;23667;43.246;26.576;2022-09-30T05:30:32;5.65;;;1.92;;
37823;SDS011;23667;43.246;26.576;2022-09-30T05:32:58;3.55;;;1.92;;
37823;SDS011;23667;43.246;26.576;2022-09-30T05:35:23;5.05;;;2.22;;
37823;SDS011;23667;43.246;26.576;2022-09-30T05:37:49;7.25;;;2.33;;
37823;SDS011;23667;43.246;26.576;2022-09-30T05:40:14;4.28;;;1.80;;
37823;SDS011;23667;43.246;26.576;2022-09-30T05:42:40;5.97;;;1.63;;
37823;SDS011;23667;43.246;26.576;2022-09-30T05:45:06;4.95;;;1.65;;
37823;SDS011;23667;43.246;26.576;2022-09-30T05:47:32;5.88;;;1.98;;
37823;SDS011;23667;43.246;26.576;2022-09-30T05:49:58;2.35;;;1.55;;
37823;SDS011;23667;43.246;26.576;2022-09-30T05:52:24;2.17;;;1.60;;
37823;SDS011;23667;43.246;26.576;2022-09-30T05:54:50;3.85;;;1.65;;
37823;SDS011;23667;43.246;26.576;2022-09-30T05:57:16;4.90;;;1.60;;
37823;SDS011;23667;43.246;26.576;2022-09-30T05:59:41;6.63;;;1.73;;
37823;SDS011;23667;43.246;26.576;2022-09-30T06:02:10;6.38;;;1.80;;
37823;SDS011;23667;43.246;26.576;2022-09-30T06:04:36;3.92;;;1.83;;
37823;SDS011;23667;43.246;26.576;2022-09-30T06:07:01;4.03;;;2.00;;
37823;SDS011;23667;43.246;26.576;2022-09-30T06:09:27;6.30;;;2.05;;
37823;SDS011;23667;43.246;26.576;2022-09-30T06:11:52;4.35;;;2.40;;
37823;SDS011;23667;43.246;26.576;2022-09-30T06:14:20;6.68;;;2.65;;
37823;SDS011;23667;43.246;26.576;2022-09-30T06:16:46;10.65;;;3.28;;
37823;SDS011;23667;43.246;26.576;2022-09-30T06:19:12;11.60;;;2.47;;
37823;SDS011;23667;43.246;26.576;2022-09-30T06:21:38;7.90;;;2.28;;
37823;SDS011;23667;43.246;26.576;2022-09-30T06:24:04;5.97;;;2.88;;
37823;SDS011;23667;43.246;26.576;2022-09-30T06:26:29;11.90;;;3.38;;
37823;SDS011;23667;43.246;26.576;2022-09-30T06:28:54;6.38;;;3.15;;
37823;SDS011;23667;43.246;26.576;2022-09-30T06:31:20;11.77;;;2.75;;
37823;SDS011;23667;43.246;26.576;2022-09-30T06:33:46;11.30;;;2.78;;
37823;SDS011;23667;43.246;26.576;2022-09-30T06:36:11;11.73;;;2.38;;
37823;SDS011;23667;43.246;26.576;2022-09-30T06:38:37;13.30;;;2.25;;
37823;SDS011;23667;43.246;26.576;2022-09-30T06:41:04;14.45;;;2.83;;
37823;SDS011;23667;43.246;26.576;2022-09-30T06:43:30;7.50;;;1.88;;
37823;SDS011;23667;43.246;26.576;2022-09-30T06:45:56;7.32;;;2.60;;
37823;SDS011;23667;43.246;26.576;2022-09-30T06:48:21;4.68;;;1.95;;
37823;SDS011;23667;43.246;26.576;2022-09-30T06:50:47;5.43;;;2.08;;
37823;SDS011;23667;43.246;26.576;2022-09-30T06:53:13;9.70;;;2.10;;
37823;SDS011;23667;43.246;26.576;2022-09-30T06:55:39;3.92;;;1.90;;
37823;SDS011;23667;43.246;26.576;2022-09-30T06:58:06;7.68;;;1.73;;
37823;SDS011;23667;43.246;26.576;2022-09-30T07:00:37;9.65;;;3.30;;
37823;SDS011;23667;43.246;26.576;2022-09-30T07:03:03;13.43;;;2.60;;
37823;SDS011;23667;43.246;26.576;2022-09-30T07:05:39;10.00;;;2.40;;
37823;SDS011;23667;43.246;26.576;2022-09-30T07:08:05;5.38;;;1.75;;
37823;SDS011;23667;43.246;26.576;2022-09-30T07:10:34;6.30;;;1.35;;
37823;SDS011;23667;43.246;26.576;2022-09-30T07:12:59;5.40;;;1.35;;
37823;SDS011;23667;43.246;26.576;2022-09-30T07:15:26;5.85;;;1.60;;
37823;SDS011;23667;43.246;26.576;2022-09-30T07:17:52;3.67;;;1.55;;
37823;SDS011;23667;43.246;26.576;2022-09-30T07:20:18;5.07;;;1.05;;
37823;SDS011;23667;43.246;26.576;2022-09-30T07:22:44;3.20;;;1.33;;
37823;SDS011;23667;43.246;26.576;2022-09-30T07:25:10;2.75;;;1.05;;
37823;SDS011;23667;43.246;26.576;2022-09-30T07:27:36;4.15;;;0.60;;
37823;SDS011;23667;43.246;26.576;2022-09-30T07:30:02;2.65;;;0.70;;
37823;SDS011;23667;43.246;26.576;2022-09-30T07:32:30;5.65;;;0.77;;
37823;SDS011;23667;43.246;26.576;2022-09-30T07:34:55;2.20;;;0.60;;
37823;SDS011;23667;43.246;26.576;2022-09-30T07:37:22;2.03;;;0.60;;
37823;SDS011;23667;43.246;26.576;2022-09-30T07:39:49;3.17;;;0.50;;
37823;SDS011;23667;43.246;26.576;2022-09-30T07:42:15;3.35;;;0.90;;
37823;SDS011;23667;43.246;26.576;2022-09-30T07:44:44;2.33;;;0.57;;
37823;SDS011;23667;43.246;26.576;2022-09-30T07:47:10;2.60;;;0.60;;
37823;SDS011;23667;43.246;26.576;2022-09-30T07:49:38;1.67;;;0.52;;
37823;SDS011;23667;43.246;26.576;2022-09-30T07:52:04;4.55;;;0.63;;
37823;SDS011;23667;43.246;26.576;2022-09-30T07:54:31;2.08;;;0.77;;
37823;SDS011;23667;43.246;26.576;2022-09-30T07:56:58;4.63;;;0.82;;
37823;SDS011;23667;43.246;26.576;2022-09-30T07:59:25;2.00;;;0.60;;
37823;SDS011;23667;43.246;26.576;2022-09-30T08:01:54;1.80;;;0.50;;
37823;SDS011;23667;43.246;26.576;2022-09-30T08:04:21;3.15;;;0.60;;
37823;SDS011;23667;43.246;26.576;2022-09-30T08:06:48;1.70;;;0.55;;
37823;SDS011;23667;43.246;26.576;2022-09-30T08:09:17;2.55;;;0.77;;
37823;SDS011;23667;43.246;26.576;2022-09-30T08:11:44;2.65;;;0.77;;
37823;SDS011;23667;43.246;26.576;2022-09-30T08:14:14;1.85;;;0.60;;
37823;SDS011;23667;43.246;26.576;2022-09-30T08:16:42;4.63;;;0.73;;
37823;SDS011;23667;43.246;26.576;2022-09-30T08:19:11;2.85;;;0.80;;
37823;SDS011;23667;43.246;26.576;2022-09-30T08:21:42;7.18;;;1.38;;
37823;SDS011;23667;43.246;26.576;2022-09-30T08:24:08;1.65;;;0.50;;
37823;SDS011;23667;43.246;26.576;2022-09-30T08:26:34;3.40;;;1.00;;
37823;SDS011;23667;43.246;26.576;2022-09-30T08:29:00;3.88;;;0.60;;
37823;SDS011;23667;43.246;26.576;2022-09-30T08:31:25;1.90;;;0.50;;
37823;SDS011;23667;43.246;26.576;2022-09-30T08:33:52;5.00;;;0.80;;
37823;SDS011;23667;43.246;26.576;2022-09-30T08:36:19;2.70;;;0.40;;
37823;SDS011;23667;43.246;26.576;2022-09-30T08:38:46;1.60;;;0.68;;
37823;SDS011;23667;43.246;26.576;2022-09-30T08:41:26;1.55;;;0.63;;
37823;SDS011;23667;43.246;26.576;2022-09-30T08:52:41;2.45;;;0.43;;
37823;SDS011;23667;43.246;26.576;2022-09-30T08:55:20;3.40;;;0.93;;
37823;SDS011;23667;43.246;26.576;2022-09-30T08:57:48;1.00;;;0.40;;
37823;SDS011;23667;43.246;26.576;2022-09-30T09:00:16;3.17;;;0.40;;
37823;SDS011;23667;43.246;26.576;2022-09-30T09:02:50;1.55;;;0.45;;
37823;SDS011;23667;43.246;26.576;2022-09-30T09:13:15;1.35;;;0.55;;
37823;SDS011;23667;43.246;26.576;2022-09-30T09:21:26;1.95;;;0.47;;
37823;SDS011;23667;43.246;26.576;2022-09-30T09:24:03;1.75;;;0.75;;
37823;SDS011;23667;43.246;26.576;2022-09-30T09:26:36;1.40;;;0.60;;
37823;SDS011;23667;43.246;26.576;2022-09-30T09:31:52;2.50;;;0.50;;
37823;SDS011;23667;43.246;26.576;2022-09-30T09:34:19;4.05;;;0.95;;
37823;SDS011;23667;43.246;26.576;2022-09-30T09:47:21;2.15;;;0.70;;
37823;SDS011;23667;43.246;26.576;2022-09-30T09:49:50;1.42;;;0.57;;
37823;SDS011;23667;43.246;26.576;2022-09-30T09:55:02;1.73;;;0.30;;
37823;SDS011;23667;43.246;26.576;2022-09-30T09:57:28;2.60;;;0.50;;
37823;SDS011;23667;43.246;26.576;2022-09-30T10:05:36;1.95;;;0.50;;
37823;SDS011;23667;43.246;26.576;2022-09-30T10:08:09;2.72;;;0.50;;
37823;SDS011;23667;43.246;26.576;2022-09-30T10:10:46;0.95;;;0.50;;
37823;SDS011;23667;43.246;26.576;2022-09-30T10:13:23;1.23;;;0.50;;
37823;SDS011;23667;43.246;26.576;2022-09-30T10:15:58;3.35;;;0.73;;
37823;SDS011;23667;43.246;26.576;2022-09-30T10:18:26;3.03;;;0.60;;
37823;SDS011;23667;43.246;26.576;2022-09-30T10:21:18;1.05;;;0.60;;
37823;SDS011;23667;43.246;26.576;2022-09-30T10:23:46;2.88;;;0.60;;
37823;SDS011;23667;43.246;26.576;2022-09-30T10:26:18;1.40;;;0.50;;
37823;SDS011;23667;43.246;26.576;2022-09-30T10:31:20;2.08;;;0.60;;
37823;SDS011;23667;43.246;26.576;2022-09-30T10:33:52;1.70;;;0.50;;
37823;SDS011;23667;43.246;26.576;2022-09-30T10:36:28;0.98;;;0.40;;
37823;SDS011;23667;43.246;26.576;2022-09-30T10:38:58;2.58;;;0.70;;
37823;SDS011;23667;43.246;26.576;2022-09-30T10:41:26;3.25;;;0.98;;
37823;SDS011;23667;43.246;26.576;2022-09-30T10:43:55;2.80;;;1.00;;
37823;SDS011;23667;43.246;26.576;2022-09-30T10:46:31;3.55;;;0.70;;
37823;SDS011;23667;43.246;26.576;2022-09-30T10:48:59;1.55;;;0.50;;
37823;SDS011;23667;43.246;26.576;2022-09-30T10:51:33;1.05;;;0.50;;
37823;SDS011;23667;43.246;26.576;2022-09-30T10:54:00;1.23;;;0.60;;
37823;SDS011;23667;43.246;26.576;2022-09-30T10:56:31;1.42;;;0.73;;
37823;SDS011;23667;43.246;26.576;2022-09-30T10:58:58;1.60;;;0.75;;
37823;SDS011;23667;43.246;26.576;2022-09-30T11:01:49;4.50;;;0.77;;
37823;SDS011;23667;43.246;26.576;2022-09-30T11:04:45;1.20;;;0.60;;
37823;SDS011;23667;43.246;26.576;2022-09-30T11:07:26;1.98;;;0.60;;
37823;SDS011;23667;43.246;26.576;2022-09-30T11:12:47;4.63;;;0.60;;
37823;SDS011;23667;43.246;26.576;2022-09-30T11:18:11;1.30;;;0.60;;
37823;SDS011;23667;43.246;26.576;2022-09-30T11:20:54;3.65;;;0.80;;
37823;SDS011;23667;43.246;26.576;2022-09-30T11:28:56;1.40;;;0.70;;
37823;SDS011;23667;43.246;26.576;2022-09-30T11:31:43;2.70;;;0.93;;
37823;SDS011;23667;43.246;26.576;2022-09-30T11:40:52;2.33;;;0.77;;
37823;SDS011;23667;43.246;26.576;2022-09-30T11:49:12;1.73;;;0.63;;
37823;SDS011;23667;43.246;26.576;2022-09-30T11:54:21;1.73;;;0.60;;
37823;SDS011;23667;43.246;26.576;2022-09-30T12:02:17;1.85;;;0.60;;
37823;SDS011;23667;43.246;26.576;2022-09-30T12:04:55;1.63;;;0.68;;
37823;SDS011;23667;43.246;26.576;2022-09-30T12:07:38;1.92;;;1.00;;
37823;SDS011;23667;43.246;26.576;2022-09-30T12:12:57;4.53;;;0.70;;
37823;SDS011;23667;43.246;26.576;2022-09-30T12:15:28;0.85;;;0.45;;
37823;SDS011;23667;43.246;26.576;2022-09-30T12:18:02;1.35;;;0.57;;
37823;SDS011;23667;43.246;26.576;2022-09-30T12:20:52;1.60;;;0.70;;
37823;SDS011;23667;43.246;26.576;2022-09-30T12:23:26;3.08;;;0.70;;
37823;SDS011;23667;43.246;26.576;2022-09-30T12:31:18;2.15;;;0.63;;
37823;SDS011;23667;43.246;26.576;2022-09-30T12:36:52;3.38;;;1.15;;
37823;SDS011;23667;43.246;26.576;2022-09-30T12:45:08;1.95;;;0.95;;
37823;SDS011;23667;43.246;26.576;2022-09-30T12:47:58;1.48;;;0.60;;
37823;SDS011;23667;43.246;26.576;2022-09-30T12:50:27;1.65;;;0.98;;
37823;SDS011;23667;43.246;26.576;2022-09-30T12:53:09;2.25;;;0.82;;
37823;SDS011;23667;43.246;26.576;2022-09-30T12:55:41;1.95;;;0.60;;
37823;SDS011;23667;43.246;26.576;2022-09-30T12:58:15;2.53;;;0.70;;
37823;SDS011;23667;43.246;26.576;2022-09-30T13:00:59;1.10;;;0.52;;
37823;SDS011;23667;43.246;26.576;2022-09-30T13:03:36;2.40;;;0.70;;
37823;SDS011;23667;43.246;26.576;2022-09-30T13:06:08;1.42;;;0.70;;
37823;SDS011;23667;43.246;26.576;2022-09-30T13:08:44;1.98;;;0.70;;
37823;SDS011;23667;43.246;26.576;2022-09-30T13:11:35;2.45;;;0.60;;
37823;SDS011;23667;43.246;26.576;2022-09-30T13:17:21;4.15;;;1.00;;
37823;SDS011;23667;43.246;26.576;2022-09-30T13:30:38;4.15;;;1.00;;
37823;SDS011;23667;43.246;26.576;2022-09-30T13:33:25;2.53;;;1.42;;
37823;SDS011;23667;43.246;26.576;2022-09-30T13:35:50;1.20;;;0.70;;
37823;SDS011;23667;43.246;26.576;2022-09-30T13:40:46;2.25;;;0.68;;
37823;SDS011;23667;43.246;26.576;2022-09-30T13:43:20;1.77;;;0.75;;
37823;SDS011;23667;43.246;26.576;2022-09-30T13:45:50;0.80;;;0.50;;
37823;SDS011;23667;43.246;26.576;2022-09-30T13:48:38;1.85;;;0.90;;
37823;SDS011;23667;43.246;26.576;2022-09-30T13:51:12;1.63;;;0.95;;
37823;SDS011;23667;43.246;26.576;2022-09-30T13:53:44;1.30;;;0.70;;
37823;SDS011;23667;43.246;26.576;2022-09-30T13:56:22;2.75;;;0.80;;
37823;SDS011;23667;43.246;26.576;2022-09-30T14:01:26;1.45;;;0.80;;
37823;SDS011;23667;43.246;26.576;2022-09-30T14:24:26;1.63;;;0.50;;
37823;SDS011;23667;43.246;26.576;2022-09-30T14:32:35;5.38;;;1.30;;
37823;SDS011;23667;43.246;26.576;2022-09-30T14:35:26;1.73;;;0.80;;
37823;SDS011;23667;43.246;26.576;2022-09-30T14:40:36;3.80;;;0.50;;
37823;SDS011;23667;43.246;26.576;2022-09-30T14:43:05;1.25;;;0.40;;
37823;SDS011;23667;43.246;26.576;2022-09-30T14:45:37;2.50;;;0.50;;
37823;SDS011;23667;43.246;26.576;2022-09-30T14:48:13;1.27;;;0.55;;
37823;SDS011;23667;43.246;26.576;2022-09-30T14:50:45;2.80;;;0.65;;
37823;SDS011;23667;43.246;26.576;2022-09-30T14:53:23;1.80;;;0.63;;
37823;SDS011;23667;43.246;26.576;2022-09-30T14:55:53;2.20;;;0.47;;
37823;SDS011;23667;43.246;26.576;2022-09-30T14:58:21;6.03;;;0.98;;
37823;SDS011;23667;43.246;26.576;2022-09-30T15:00:56;2.40;;;0.70;;
37823;SDS011;23667;43.246;26.576;2022-09-30T15:03:23;1.23;;;0.50;;
37823;SDS011;23667;43.246;26.576;2022-09-30T15:05:49;4.38;;;0.65;;
37823;SDS011;23667;43.246;26.576;2022-09-30T15:08:16;2.05;;;0.70;;
37823;SDS011;23667;43.246;26.576;2022-09-30T15:10:47;5.10;;;1.02;;
37823;SDS011;23667;43.246;26.576;2022-09-30T15:13:15;2.10;;;0.73;;
37823;SDS011;23667;43.246;26.576;2022-09-30T15:15:42;4.50;;;0.90;;
37823;SDS011;23667;43.246;26.576;2022-09-30T15:20:59;2.30;;;0.60;;
37823;SDS011;23667;43.246;26.576;2022-09-30T15:23:30;3.33;;;0.63;;
37823;SDS011;23667;43.246;26.576;2022-09-30T15:25:57;2.08;;;1.10;;
37823;SDS011;23667;43.246;26.576;2022-09-30T15:28:24;2.50;;;0.77;;
37823;SDS011;23667;43.246;26.576;2022-09-30T15:30:50;4.57;;;1.10;;
37823;SDS011;23667;43.246;26.576;2022-09-30T15:33:19;2.17;;;0.70;;
37823;SDS011;23667;43.246;26.576;2022-09-30T15:35:49;1.08;;;0.70;;
37823;SDS011;23667;43.246;26.576;2022-09-30T15:40:54;2.03;;;0.70;;
37823;SDS011;23667;43.246;26.576;2022-09-30T15:48:36;3.38;;;1.05;;
37823;SDS011;23667;43.246;26.576;2022-09-30T15:51:28;5.05;;;1.42;;
37823;SDS011;23667;43.246;26.576;2022-09-30T15:53:57;3.13;;;1.10;;
37823;SDS011;23667;43.246;26.576;2022-09-30T15:56:35;5.38;;;0.98;;
37823;SDS011;23667;43.246;26.576;2022-09-30T15:59:11;4.47;;;0.90;;
37823;SDS011;23667;43.246;26.576;2022-09-30T16:01:38;6.85;;;1.13;;
37823;SDS011;23667;43.246;26.576;2022-09-30T16:06:54;6.82;;;2.30;;
37823;SDS011;23667;43.246;26.576;2022-09-30T16:09:28;8.75;;;2.72;;
37823;SDS011;23667;43.246;26.576;2022-09-30T16:11:58;6.85;;;2.15;;
37823;SDS011;23667;43.246;26.576;2022-09-30T16:14:25;7.38;;;2.33;;
37823;SDS011;23667;43.246;26.576;2022-09-30T16:16:54;7.47;;;3.33;;
37823;SDS011;23667;43.246;26.576;2022-09-30T16:19:22;8.57;;;2.25;;
37823;SDS011;23667;43.246;26.576;2022-09-30T16:21:50;7.88;;;2.33;;
37823;SDS011;23667;43.246;26.576;2022-09-30T16:29:25;7.25;;;2.45;;
37823;SDS011;23667;43.246;26.576;2022-09-30T16:31:52;7.45;;;2.42;;
37823;SDS011;23667;43.246;26.576;2022-09-30T16:34:26;6.60;;;2.65;;
37823;SDS011;23667;43.246;26.576;2022-09-30T16:36:54;7.68;;;2.35;;
37823;SDS011;23667;43.246;26.576;2022-09-30T16:39:27;5.78;;;2.10;;
37823;SDS011;23667;43.246;26.576;2022-09-30T16:41:53;5.82;;;2.65;;
37823;SDS011;23667;43.246;26.576;2022-09-30T16:44:18;8.35;;;3.22;;
37823;SDS011;23667;43.246;26.576;2022-09-30T16:46:45;7.35;;;3.63;;
37823;SDS011;23667;43.246;26.576;2022-09-30T16:49:11;6.35;;;3.05;;
37823;SDS011;23667;43.246;26.576;2022-09-30T16:51:40;12.15;;;3.75;;
37823;SDS011;23667;43.246;26.576;2022-09-30T16:54:06;7.72;;;2.78;;
37823;SDS011;23667;43.246;26.576;2022-09-30T16:56:32;16.45;;;3.40;;
37823;SDS011;23667;43.246;26.576;2022-09-30T16:58:58;6.57;;;2.55;;
37823;SDS011;23667;43.246;26.576;2022-09-30T17:01:24;19.42;;;4.15;;
37823;SDS011;23667;43.246;26.576;2022-09-30T17:03:49;6.40;;;2.88;;
37823;SDS011;23667;43.246;26.576;2022-09-30T17:06:17;6.10;;;2.90;;
37823;SDS011;23667;43.246;26.576;2022-09-30T17:08:50;5.93;;;2.78;;
37823;SDS011;23667;43.246;26.576;2022-09-30T17:11:16;9.18;;;2.88;;
37823;SDS011;23667;43.246;26.576;2022-09-30T17:13:43;10.48;;;2.45;;
37823;SDS011;23667;43.246;26.576;2022-09-30T17:16:09;5.95;;;2.55;;
37823;SDS011;23667;43.246;26.576;2022-09-30T17:18:35;8.05;;;2.85;;
37823;SDS011;23667;43.246;26.576;2022-09-30T17:21:00;5.88;;;2.58;;
37823;SDS011;23667;43.246;26.576;2022-09-30T17:23:26;8.15;;;2.10;;
37823;SDS011;23667;43.246;26.576;2022-09-30T17:25:51;5.78;;;2.10;;
37823;SDS011;23667;43.246;26.576;2022-09-30T17:28:18;4.40;;;2.03;;
37823;SDS011;23667;43.246;26.576;2022-09-30T17:30:44;7.53;;;2.17;;
37823;SDS011;23667;43.246;26.576;2022-09-30T17:33:13;3.17;;;2.17;;
37823;SDS011;23667;43.246;26.576;2022-09-30T17:35:38;5.75;;;2.45;;
37823;SDS011;23667;43.246;26.576;2022-09-30T17:38:07;5.72;;;2.13;;
37823;SDS011;23667;43.246;26.576;2022-09-30T17:40:34;5.28;;;2.63;;
37823;SDS011;23667;43.246;26.576;2022-09-30T17:43:18;7.65;;;2.92;;
37823;SDS011;23667;43.246;26.576;2022-09-30T17:45:44;4.15;;;2.17;;
37823;SDS011;23667;43.246;26.576;2022-09-30T17:48:11;6.72;;;2.15;;
37823;SDS011;23667;43.246;26.576;2022-09-30T17:50:39;5.22;;;2.60;;
37823;SDS011;23667;43.246;26.576;2022-09-30T17:53:08;6.45;;;2.80;;
37823;SDS011;23667;43.246;26.576;2022-09-30T17:55:37;3.70;;;1.67;;
37823;SDS011;23667;43.246;26.576;2022-09-30T17:58:02;6.57;;;2.53;;
37823;SDS011;23667;43.246;26.576;2022-09-30T18:00:28;5.55;;;2.67;;
37823;SDS011;23667;43.246;26.576;2022-09-30T18:02:55;5.15;;;2.78;;
37823;SDS011;23667;43.246;26.576;2022-09-30T18:05:21;23.90;;;9.57;;
37823;SDS011;23667;43.246;26.576;2022-09-30T18:07:49;16.33;;;7.30;;
37823;SDS011;23667;43.246;26.576;2022-09-30T18:10:15;14.32;;;6.40;;
37823;SDS011;23667;43.246;26.576;2022-09-30T18:12:41;12.10;;;5.20;;
37823;SDS011;23667;43.246;26.576;2022-09-30T18:15:06;9.45;;;3.72;;
37823;SDS011;23667;43.246;26.576;2022-09-30T18:17:33;5.80;;;2.78;;
37823;SDS011;23667;43.246;26.576;2022-09-30T18:19:59;7.25;;;3.00;;
37823;SDS011;23667;43.246;26.576;2022-09-30T18:22:25;3.33;;;2.40;;
37823;SDS011;23667;43.246;26.576;2022-09-30T18:24:50;7.63;;;2.65;;
37823;SDS011;23667;43.246;26.576;2022-09-30T18:27:34;6.57;;;1.95;;
37823;SDS011;23667;43.246;26.576;2022-09-30T18:30:00;3.40;;;2.38;;